Time;durP1;ratioP1;P1;durP2;ratioP2;P2;SDS_P1;SDS_P2;PMS_P1;PMS_P2;Temp;Humidity;BMP_temperature;BMP_pressure;BME280_temperature;BME280_humidity;BME280_pressure;Samples;Min_cycle;Max_cycle;Signal;HPM_P1;HPM_P2
2021/04/02 00:00:13;;;;;;;13.03;8.23;;;;;;;;;;4905838;29;20266;-79
2021/04/02 00:02:41;;;;;;;15.63;8.10;;;;;;;;;;4902862;28;20219;-80
2021/04/02 00:05:11;;;;;;;11.27;8.00;;;;;;;;;;4882666;29;20232;-79
2021/04/02 00:07:39;;;;;;;13.00;9.10;;;;;;;;;;4901095;28;20236;-79
2021/04/02 00:10:08;;;;;;;11.90;8.33;;;;;;;;;;4905806;28;20232;-79
2021/04/02 00:12:45;;;;;;;12.00;8.30;;;;;;;;;;4887670;29;20236;-81
2021/04/02 00:15:15;;;;;;;11.70;8.17;;;;;;;;;;4885176;28;20235;-80
2021/04/02 00:17:44;;;;;;;12.97;8.57;;;;;;;;;;4902914;28;20264;-81
2021/04/02 00:20:14;;;;;;;11.27;8.33;;;;;;;;;;4898532;29;20234;-79
2021/04/02 00:22:43;;;;;;;14.50;8.93;;;;;;;;;;4905847;28;20228;-79
2021/04/02 00:25:12;;;;;;;12.20;8.87;;;;;;;;;;4915351;28;20923;-78
2021/04/02 00:27:41;;;;;;;13.13;8.63;;;;;;;;;;4909880;29;20329;-78
2021/04/02 00:30:11;;;;;;;14.80;8.60;;;;;;;;;;4906586;28;20236;-78
2021/04/02 00:32:39;;;;;;;14.63;9.60;;;;;;;;;;4904469;28;20239;-79
2021/04/02 00:35:10;;;;;;;13.30;8.97;;;;;;;;;;4903313;28;20613;-79
2021/04/02 00:37:39;;;;;;;13.43;9.50;;;;;;;;;;4893875;29;20241;-78
2021/04/02 00:40:12;;;;;;;15.20;9.90;;;;;;;;;;4907251;28;20236;-81
2021/04/02 00:42:39;;;;;;;13.43;8.20;;;;;;;;;;4890244;29;20232;-78
2021/04/02 00:45:08;;;;;;;13.53;9.03;;;;;;;;;;4895980;29;20730;-78
2021/04/02 00:47:36;;;;;;;14.80;9.43;;;;;;;;;;4892577;29;20240;-79
2021/04/02 00:50:08;;;;;;;12.17;8.93;;;;;;;;;;4910310;29;20224;-78
2021/04/02 00:52:36;;;;;;;15.90;9.83;;;;;;;;;;4902130;29;20737;-79
2021/04/02 00:55:04;;;;;;;11.63;9.60;;;;;;;;;;4892364;29;20240;-78
2021/04/02 00:57:34;;;;;;;13.03;9.47;;;;;;;;;;4902368;29;20244;-79
2021/04/02 01:00:04;;;;;;;12.00;8.47;;;;;;;;;;4889768;29;20228;-79
2021/04/02 01:02:33;;;;;;;11.27;8.17;;;;;;;;;;4907152;29;20575;-79
2021/04/02 01:05:01;;;;;;;14.13;9.30;;;;;;;;;;4906818;29;20232;-78
2021/04/02 01:07:30;;;;;;;12.90;8.97;;;;;;;;;;4896606;29;20224;-78
2021/04/02 01:09:58;;;;;;;13.13;8.80;;;;;;;;;;4929522;28;20243;-78
2021/04/02 01:12:26;;;;;;;14.30;9.30;;;;;;;;;;4911906;29;20232;-78
2021/04/02 01:14:59;;;;;;;9.77;7.83;;;;;;;;;;4911048;28;20231;-79
2021/04/02 01:17:28;;;;;;;13.03;8.77;;;;;;;;;;4911987;29;20227;-81
2021/04/02 01:19:57;;;;;;;10.40;7.30;;;;;;;;;;4909134;29;20236;-78
2021/04/02 01:22:28;;;;;;;11.57;8.47;;;;;;;;;;4913068;29;20251;-79
2021/04/02 01:25:09;;;;;;;12.00;7.80;;;;;;;;;;4912747;28;20694;-79
2021/04/02 01:27:47;;;;;;;12.07;8.33;;;;;;;;;;4924719;29;20608;-79
2021/04/02 01:30:15;;;;;;;17.20;8.77;;;;;;;;;;4923727;29;20410;-78
2021/04/02 01:32:46;;;;;;;10.67;8.20;;;;;;;;;;4892725;28;20236;-79
2021/04/02 01:35:24;;;;;;;9.23;7.20;;;;;;;;;;4908908;29;20251;-78
2021/04/02 01:37:55;;;;;;;13.60;8.03;;;;;;;;;;4916406;28;20228;-78
2021/04/02 01:40:25;;;;;;;12.87;7.67;;;;;;;;;;4908043;29;20244;-79
2021/04/02 01:42:54;;;;;;;13.47;7.57;;;;;;;;;;4930300;28;20239;-78
2021/04/02 01:45:25;;;;;;;15.20;8.00;;;;;;;;;;4913674;29;20481;-83
2021/04/02 01:47:58;;;;;;;11.07;7.63;;;;;;;;;;4909134;29;20240;-79
2021/04/02 01:50:27;;;;;;;15.43;7.97;;;;;;;;;;4901701;29;20239;-79
2021/04/02 01:52:56;;;;;;;13.50;7.93;;;;;;;;;;4911118;28;20235;-79
2021/04/02 01:55:24;;;;;;;12.13;7.40;;;;;;;;;;4906203;29;20227;-81
2021/04/02 01:57:54;;;;;;;12.40;7.83;;;;;;;;;;4891600;29;20244;-79
2021/04/02 02:00:32;;;;;;;10.30;7.20;;;;;;;;;;4903622;29;20247;-79
2021/04/02 02:03:01;;;;;;;10.50;7.30;;;;;;;;;;4908183;28;20232;-78
2021/04/02 02:05:33;;;;;;;10.83;7.20;;;;;;;;;;4914505;28;20228;-82
2021/04/02 02:08:10;;;;;;;11.40;6.90;;;;;;;;;;4911982;29;20246;-78
2021/04/02 02:10:44;;;;;;;15.60;7.70;;;;;;;;;;4916520;29;20808;-79
2021/04/02 02:13:13;;;;;;;13.87;7.37;;;;;;;;;;4913359;29;20239;-78
2021/04/02 02:15:54;;;;;;;9.90;7.23;;;;;;;;;;4910401;29;20229;-79
2021/04/02 02:18:25;;;;;;;11.37;7.33;;;;;;;;;;4907302;29;20599;-79
2021/04/02 02:20:54;;;;;;;9.03;6.93;;;;;;;;;;4912355;29;20595;-77
2021/04/02 02:23:23;;;;;;;12.93;6.87;;;;;;;;;;4915008;29;20232;-78
2021/04/02 02:25:51;;;;;;;11.07;6.57;;;;;;;;;;4904137;28;20236;-79
2021/04/02 02:28:20;;;;;;;10.23;7.47;;;;;;;;;;4913951;29;20239;-79
2021/04/02 02:30:49;;;;;;;10.97;6.30;;;;;;;;;;4926855;28;20228;-78
2021/04/02 02:33:29;;;;;;;9.60;6.50;;;;;;;;;;4925314;28;20239;-79
2021/04/02 02:36:06;;;;;;;9.37;6.50;;;;;;;;;;4901696;28;20243;-79
2021/04/02 02:38:34;;;;;;;7.70;6.20;;;;;;;;;;4911234;29;20251;-79
2021/04/02 02:41:04;;;;;;;9.30;5.90;;;;;;;;;;4892528;29;20231;-82
2021/04/02 02:43:33;;;;;;;11.67;6.87;;;;;;;;;;4928704;28;20236;-79
2021/04/02 02:46:03;;;;;;;10.40;6.73;;;;;;;;;;4912806;29;20232;-79
2021/04/02 02:48:32;;;;;;;9.10;7.10;;;;;;;;;;4896373;29;20229;-79
2021/04/02 02:51:02;;;;;;;16.03;6.77;;;;;;;;;;4892831;28;20235;-80
2021/04/02 02:53:32;;;;;;;11.53;6.33;;;;;;;;;;4909858;29;20228;-79
2021/04/02 02:56:06;;;;;;;9.50;6.20;;;;;;;;;;4896022;29;20243;-78
2021/04/02 02:58:38;;;;;;;8.63;6.33;;;;;;;;;;4915339;29;20240;-78
2021/04/02 03:01:08;;;;;;;9.47;7.30;;;;;;;;;;4904499;29;20731;-78
2021/04/02 03:03:40;;;;;;;11.80;7.43;;;;;;;;;;4909138;28;20233;-78
2021/04/02 03:06:13;;;;;;;10.57;6.73;;;;;;;;;;4925802;28;20236;-79
2021/04/02 03:08:45;;;;;;;11.27;7.33;;;;;;;;;;4926567;28;20240;-79
2021/04/02 03:11:18;;;;;;;11.00;7.13;;;;;;;;;;4902021;29;20623;-79
2021/04/02 03:13:51;;;;;;;15.53;6.87;;;;;;;;;;4911311;29;20246;-78
2021/04/02 03:16:22;;;;;;;12.77;6.63;;;;;;;;;;4929800;28;20239;-78
2021/04/02 03:18:53;;;;;;;14.87;6.30;;;;;;;;;;4908652;28;20248;-79
2021/04/02 03:21:21;;;;;;;11.70;7.10;;;;;;;;;;4911347;29;20236;-78
2021/04/02 03:23:54;;;;;;;11.80;6.83;;;;;;;;;;4916819;28;20227;-78
2021/04/02 03:26:24;;;;;;;8.30;6.63;;;;;;;;;;4930223;28;20240;-81
2021/04/02 03:28:54;;;;;;;10.87;6.40;;;;;;;;;;4912470;29;20232;-79
2021/04/02 03:31:24;;;;;;;11.20;7.07;;;;;;;;;;4896234;29;20217;-80
2021/04/02 03:33:56;;;;;;;11.17;6.80;;;;;;;;;;4894676;28;20228;-80
2021/04/02 03:36:31;;;;;;;11.37;7.17;;;;;;;;;;4916863;29;20921;-79
2021/04/02 03:39:11;;;;;;;9.43;6.97;;;;;;;;;;4916931;29;20235;-79
2021/04/02 03:41:39;;;;;;;9.67;6.80;;;;;;;;;;4894930;28;20223;-78
2021/04/02 03:44:13;;;;;;;12.93;7.30;;;;;;;;;;4903571;29;20243;-79
2021/04/02 03:46:44;;;;;;;8.93;6.87;;;;;;;;;;4893168;29;20594;-78
2021/04/02 03:49:19;;;;;;;10.10;6.53;;;;;;;;;;4901924;29;20248;-79
2021/04/02 03:51:50;;;;;;;11.27;6.70;;;;;;;;;;4906495;28;20224;-79
2021/04/02 03:54:20;;;;;;;10.60;6.67;;;;;;;;;;4898637;29;20237;-83
2021/04/02 03:56:49;;;;;;;14.43;7.20;;;;;;;;;;4916772;28;20232;-79
2021/04/02 03:59:24;;;;;;;14.07;7.60;;;;;;;;;;4929614;28;20235;-78
2021/04/02 04:01:56;;;;;;;10.13;6.97;;;;;;;;;;4906883;29;20239;-79
2021/04/02 04:04:28;;;;;;;14.13;7.87;;;;;;;;;;4897544;29;20233;-81
2021/04/02 04:06:58;;;;;;;12.20;7.93;;;;;;;;;;4912271;28;20236;-79
2021/04/02 04:09:28;;;;;;;14.97;7.93;;;;;;;;;;4898620;29;20234;-79
2021/04/02 04:12:04;;;;;;;9.83;7.17;;;;;;;;;;4893423;29;20228;-79
2021/04/02 04:14:42;;;;;;;11.33;7.37;;;;;;;;;;4912059;29;20228;-79
2021/04/02 04:17:11;;;;;;;13.33;7.80;;;;;;;;;;4894524;29;20246;-79
2021/04/02 04:19:42;;;;;;;11.17;7.63;;;;;;;;;;4900920;29;20220;-79
2021/04/02 04:22:15;;;;;;;12.30;7.80;;;;;;;;;;4937583;28;22868;-81
2021/04/02 04:24:43;;;;;;;11.13;7.80;;;;;;;;;;4911508;28;20228;-81
2021/04/02 04:27:11;;;;;;;13.20;8.10;;;;;;;;;;4924584;29;20235;-79
2021/04/02 04:29:41;;;;;;;12.73;7.70;;;;;;;;;;4922364;28;20227;-79
2021/04/02 04:32:10;;;;;;;11.73;8.37;;;;;;;;;;4923263;29;20247;-80
2021/04/02 04:34:37;;;;;;;10.30;7.23;;;;;;;;;;4913929;29;20625;-81
2021/04/02 04:37:07;;;;;;;14.97;8.13;;;;;;;;;;4893179;29;20621;-79
2021/04/02 04:39:36;;;;;;;13.13;8.33;;;;;;;;;;4911056;29;20295;-79
2021/04/02 04:42:05;;;;;;;12.20;7.47;;;;;;;;;;4899079;29;20232;-81
2021/04/02 04:44:34;;;;;;;13.53;8.40;;;;;;;;;;4907372;29;20236;-78
2021/04/02 04:47:01;;;;;;;10.83;7.80;;;;;;;;;;4906008;28;20233;-79
2021/04/02 04:49:29;;;;;;;17.67;9.00;;;;;;;;;;4891808;29;20622;-78
2021/04/02 04:51:57;;;;;;;14.13;8.50;;;;;;;;;;4912541;29;20239;-79
2021/04/02 04:54:26;;;;;;;18.83;9.30;;;;;;;;;;4911962;29;20239;-79
2021/04/02 04:56:56;;;;;;;17.67;8.67;;;;;;;;;;4896802;28;20224;-78
2021/04/02 04:59:23;;;;;;;10.30;7.83;;;;;;;;;;4916220;28;20232;-78
2021/04/02 05:01:52;;;;;;;10.67;8.20;;;;;;;;;;4890262;29;20706;-78
2021/04/02 05:04:20;;;;;;;13.63;8.13;;;;;;;;;;4904594;29;20232;-78
2021/04/02 05:06:53;;;;;;;16.43;9.10;;;;;;;;;;4919962;28;20223;-79
2021/04/02 05:09:23;;;;;;;20.53;9.10;;;;;;;;;;4906924;29;20236;-78
2021/04/02 05:11:52;;;;;;;16.07;9.67;;;;;;;;;;4903779;28;20239;-81
2021/04/02 05:14:20;;;;;;;20.87;10.23;;;;;;;;;;4894582;29;20255;-78
2021/04/02 05:16:48;;;;;;;20.20;10.17;;;;;;;;;;4908232;28;20225;-78
2021/04/02 05:19:17;;;;;;;19.97;10.20;;;;;;;;;;4910094;29;20591;-78
2021/04/02 05:21:46;;;;;;;20.77;10.07;;;;;;;;;;4899903;28;20228;-78
2021/04/02 05:24:13;;;;;;;25.93;10.37;;;;;;;;;;4905568;29;20232;-77
2021/04/02 05:26:41;;;;;;;17.57;9.27;;;;;;;;;;4917094;28;20239;-78
2021/04/02 05:29:09;;;;;;;18.67;9.37;;;;;;;;;;4897265;29;20725;-79
2021/04/02 05:31:37;;;;;;;19.83;9.83;;;;;;;;;;4911610;28;20607;-78
2021/04/02 05:34:15;;;;;;;22.23;10.03;;;;;;;;;;4906561;29;20593;-78
2021/04/02 05:36:42;;;;;;;22.73;9.50;;;;;;;;;;4911301;28;20236;-78
2021/04/02 05:39:10;;;;;;;22.57;10.80;;;;;;;;;;4888258;29;20245;-78
2021/04/02 05:41:48;;;;;;;20.77;10.77;;;;;;;;;;4891533;29;20239;-78
2021/04/02 05:44:19;;;;;;;14.07;8.90;;;;;;;;;;4910530;29;20235;-78
2021/04/02 05:46:48;;;;;;;17.83;10.40;;;;;;;;;;4925155;28;20236;-78
2021/04/02 05:49:18;;;;;;;18.30;10.60;;;;;;;;;;4896789;29;20228;-78
2021/04/02 05:51:47;;;;;;;19.83;10.40;;;;;;;;;;4904134;28;20244;-78
2021/04/02 05:54:17;;;;;;;20.17;10.87;;;;;;;;;;4913182;28;20244;-78
2021/04/02 05:56:45;;;;;;;19.20;10.87;;;;;;;;;;4891717;29;20251;-78
2021/04/02 05:59:13;;;;;;;22.40;10.90;;;;;;;;;;4889160;29;20612;-78
2021/04/02 06:01:41;;;;;;;22.07;10.10;;;;;;;;;;4897485;29;20593;-78
2021/04/02 06:04:10;;;;;;;15.97;9.57;;;;;;;;;;4901155;29;20240;-78
2021/04/02 06:06:38;;;;;;;14.57;9.47;;;;;;;;;;4899985;29;20235;-79
2021/04/02 06:09:06;;;;;;;16.90;10.00;;;;;;;;;;4904108;29;20235;-78
2021/04/02 06:11:34;;;;;;;16.97;10.30;;;;;;;;;;4896704;29;20242;-78
2021/04/02 06:14:01;;;;;;;18.60;10.33;;;;;;;;;;4913068;28;20876;-78
2021/04/02 06:16:29;;;;;;;22.80;11.83;;;;;;;;;;4901018;29;20232;-78
2021/04/02 06:19:04;;;;;;;26.83;12.70;;;;;;;;;;4892276;28;20231;-78
2021/04/02 06:21:33;;;;;;;22.50;13.73;;;;;;;;;;4897507;28;20228;-81
2021/04/02 06:24:01;;;;;;;22.93;14.03;;;;;;;;;;4905932;28;20259;-78
2021/04/02 06:26:28;;;;;;;32.43;15.50;;;;;;;;;;4908748;28;20220;-81
2021/04/02 06:28:56;;;;;;;25.77;14.67;;;;;;;;;;4938790;28;20231;-83
2021/04/02 06:31:24;;;;;;;27.60;15.00;;;;;;;;;;4938829;28;20220;-83
2021/04/02 06:33:53;;;;;;;23.93;15.00;;;;;;;;;;4912701;28;20213;-81
2021/04/02 06:36:23;;;;;;;25.00;15.97;;;;;;;;;;4894058;29;20729;-79
2021/04/02 06:38:54;;;;;;;36.20;16.20;;;;;;;;;;4901559;28;20216;-78
2021/04/02 06:41:22;;;;;;;29.87;16.07;;;;;;;;;;4903862;29;20235;-78
2021/04/02 06:43:51;;;;;;;28.77;16.90;;;;;;;;;;4904157;28;21316;-80
2021/04/02 06:46:23;;;;;;;26.17;17.50;;;;;;;;;;4916398;28;20237;-80
2021/04/02 06:48:50;;;;;;;30.47;16.90;;;;;;;;;;4901124;28;20232;-81
2021/04/02 06:51:20;;;;;;;30.90;16.77;;;;;;;;;;4912467;28;20235;-79
2021/04/02 06:53:50;;;;;;;28.80;18.00;;;;;;;;;;4901828;29;20228;-78
2021/04/02 06:56:20;;;;;;;33.47;17.30;;;;;;;;;;4915888;29;20239;-78
2021/04/02 06:58:49;;;;;;;29.03;18.13;;;;;;;;;;4901407;28;20236;-78
2021/04/02 07:01:17;;;;;;;35.63;18.87;;;;;;;;;;4905874;29;20243;-79
2021/04/02 07:03:45;;;;;;;30.60;19.33;;;;;;;;;;4918441;28;20231;-79
2021/04/02 07:06:15;;;;;;;36.13;20.60;;;;;;;;;;4917395;29;20753;-78
2021/04/02 07:08:48;;;;;;;35.67;20.63;;;;;;;;;;4908915;28;20248;-79
2021/04/02 07:11:17;;;;;;;33.90;21.20;;;;;;;;;;4902917;29;20251;-78
2021/04/02 07:13:49;;;;;;;37.87;21.60;;;;;;;;;;4892762;29;20251;-78
2021/04/02 07:16:17;;;;;;;33.73;20.80;;;;;;;;;;4905657;29;20223;-81
2021/04/02 07:18:45;;;;;;;32.00;18.93;;;;;;;;;;4938999;28;20228;-79
2021/04/02 07:21:14;;;;;;;34.40;22.40;;;;;;;;;;4914106;29;20749;-79
2021/04/02 07:23:41;;;;;;;35.40;21.70;;;;;;;;;;4913294;28;20741;-78
2021/04/02 07:26:12;;;;;;;37.33;21.87;;;;;;;;;;4920118;28;20248;-80
2021/04/02 07:28:44;;;;;;;36.27;23.37;;;;;;;;;;4909556;28;20248;-78
2021/04/02 07:31:13;;;;;;;40.37;22.23;;;;;;;;;;4905729;29;20235;-78
2021/04/02 07:33:42;;;;;;;40.97;25.60;;;;;;;;;;4912070;29;20231;-78
2021/04/02 07:36:12;;;;;;;38.13;25.37;;;;;;;;;;4915980;28;20612;-78
2021/04/02 07:38:40;;;;;;;43.47;24.53;;;;;;;;;;4929127;28;20600;-78
2021/04/02 07:41:13;;;;;;;38.40;25.70;;;;;;;;;;4913832;29;20613;-79
2021/04/02 07:43:43;;;;;;;41.00;26.17;;;;;;;;;;4926172;28;20232;-79
2021/04/02 07:46:15;;;;;;;44.30;26.87;;;;;;;;;;4913410;28;20234;-79
2021/04/02 07:48:48;;;;;;;44.57;27.97;;;;;;;;;;4910187;29;20240;-79
2021/04/02 07:51:15;;;;;;;46.17;27.67;;;;;;;;;;4913900;28;20232;-79
2021/04/02 07:54:00;;;;;;;39.30;26.20;;;;;;;;;;4899750;29;20229;-78
2021/04/02 07:56:33;;;;;;;40.87;25.17;;;;;;;;;;4911926;29;20726;-78
2021/04/02 07:59:05;;;;;;;40.27;26.13;;;;;;;;;;4913028;29;20607;-79
2021/04/02 08:01:32;;;;;;;40.37;25.07;;;;;;;;;;4902897;29;20243;-80
2021/04/02 08:04:04;;;;;;;48.07;26.53;;;;;;;;;;4909491;28;20225;-80
2021/04/02 08:06:35;;;;;;;37.77;23.13;;;;;;;;;;4917363;28;20603;-79
2021/04/02 08:09:04;;;;;;;40.53;25.13;;;;;;;;;;4905571;29;20723;-81
2021/04/02 08:11:35;;;;;;;38.93;25.63;;;;;;;;;;4923396;28;20616;-80
2021/04/02 08:14:05;;;;;;;41.03;26.10;;;;;;;;;;4919090;28;20675;-78
2021/04/02 08:16:46;;;;;;;37.73;25.67;;;;;;;;;;4918874;28;20243;-80
2021/04/02 08:19:20;;;;;;;41.63;25.10;;;;;;;;;;4908544;29;20228;-78
2021/04/02 08:21:50;;;;;;;35.97;26.00;;;;;;;;;;4909004;28;20228;-80
2021/04/02 08:24:20;;;;;;;41.73;26.33;;;;;;;;;;4926221;28;20713;-81
2021/04/02 08:26:50;;;;;;;37.97;23.47;;;;;;;;;;4902243;28;20236;-80
2021/04/02 08:29:19;;;;;;;34.60;24.20;;;;;;;;;;4923434;28;20240;-80
2021/04/02 08:31:50;;;;;;;37.27;23.23;;;;;;;;;;4912901;28;20232;-79
2021/04/02 08:34:20;;;;;;;46.57;24.50;;;;;;;;;;4915309;29;20236;-79
2021/04/02 08:36:49;;;;;;;37.33;23.77;;;;;;;;;;4923395;28;20609;-78
2021/04/02 08:39:18;;;;;;;41.70;24.73;;;;;;;;;;4906987;29;20717;-78
2021/04/02 08:41:46;;;;;;;37.87;23.67;;;;;;;;;;4901698;29;20224;-77
2021/04/02 08:44:14;;;;;;;38.50;24.80;;;;;;;;;;4905757;29;20585;-79
2021/04/02 08:46:44;;;;;;;33.60;22.60;;;;;;;;;;4914250;29;20728;-79
2021/04/02 08:49:13;;;;;;;36.63;23.63;;;;;;;;;;4909046;29;20590;-81
2021/04/02 08:51:46;;;;;;;40.80;24.57;;;;;;;;;;4910364;28;20707;-80
2021/04/02 08:54:18;;;;;;;36.07;25.40;;;;;;;;;;4917063;28;20372;-78
2021/04/02 08:56:47;;;;;;;40.40;24.40;;;;;;;;;;4912869;28;20243;-82
2021/04/02 08:59:16;;;;;;;32.97;22.30;;;;;;;;;;4910942;29;20725;-78
2021/04/02 09:01:46;;;;;;;32.67;22.30;;;;;;;;;;4910753;28;20231;-79
2021/04/02 09:04:16;;;;;;;36.83;23.37;;;;;;;;;;4925616;28;20236;-76
2021/04/02 09:06:44;;;;;;;33.73;23.23;;;;;;;;;;4925084;28;20239;-80
2021/04/02 09:09:17;;;;;;;33.00;23.17;;;;;;;;;;4910255;29;20240;-80
2021/04/02 09:11:46;;;;;;;37.00;25.00;;;;;;;;;;4919291;28;20736;-79
2021/04/02 09:14:14;;;;;;;42.20;23.17;;;;;;;;;;4932208;28;20726;-80
2021/04/02 09:16:43;;;;;;;31.47;23.30;;;;;;;;;;4923628;28;20653;-78
2021/04/02 09:19:11;;;;;;;34.30;21.33;;;;;;;;;;4906677;29;20240;-80
2021/04/02 09:21:52;;;;;;;33.20;24.33;;;;;;;;;;4913020;28;20239;-81
2021/04/02 09:24:20;;;;;;;34.47;23.57;;;;;;;;;;4915986;29;20246;-77
2021/04/02 09:26:49;;;;;;;35.03;23.07;;;;;;;;;;4907790;28;20231;-77
2021/04/02 09:29:20;;;;;;;33.90;23.10;;;;;;;;;;4926778;29;20248;-79
2021/04/02 09:31:48;;;;;;;35.73;23.97;;;;;;;;;;4917506;29;20228;-78
2021/04/02 09:34:19;;;;;;;34.80;24.10;;;;;;;;;;4922537;29;20632;-78
2021/04/02 09:36:47;;;;;;;31.83;23.33;;;;;;;;;;4923377;28;20239;-79
2021/04/02 09:39:17;;;;;;;33.73;24.83;;;;;;;;;;4902940;29;20236;-79
2021/04/02 09:41:52;;;;;;;35.77;23.30;;;;;;;;;;4914393;28;20234;-78
2021/04/02 09:44:22;;;;;;;33.37;22.20;;;;;;;;;;4920060;28;20244;-79
2021/04/02 09:46:51;;;;;;;32.90;23.43;;;;;;;;;;4917757;28;20237;-79
2021/04/02 09:49:20;;;;;;;31.90;23.10;;;;;;;;;;4920420;29;20236;-79
2021/04/02 09:51:50;;;;;;;33.87;22.63;;;;;;;;;;4912086;28;20243;-80
2021/04/02 09:54:19;;;;;;;32.87;22.63;;;;;;;;;;4919196;29;20734;-79
2021/04/02 09:56:48;;;;;;;35.27;21.37;;;;;;;;;;4914089;28;20243;-79
2021/04/02 09:59:17;;;;;;;34.57;20.70;;;;;;;;;;4913062;29;20224;-79
2021/04/02 10:01:45;;;;;;;32.07;21.37;;;;;;;;;;4914917;28;20224;-81
2021/04/02 10:04:14;;;;;;;29.63;19.63;;;;;;;;;;4915721;28;20235;-79
2021/04/02 10:06:43;;;;;;;27.00;20.33;;;;;;;;;;4916133;28;20240;-78
2021/04/02 10:09:10;;;;;;;32.13;20.57;;;;;;;;;;4915270;29;20232;-79
2021/04/02 10:11:42;;;;;;;28.63;20.83;;;;;;;;;;4919167;29;20244;-76
2021/04/02 10:14:10;;;;;;;28.57;19.43;;;;;;;;;;4934809;29;20231;-77
2021/04/02 10:16:37;;;;;;;27.83;20.30;;;;;;;;;;4923319;29;20240;-78
2021/04/02 10:19:06;;;;;;;32.90;20.90;;;;;;;;;;4917982;29;20266;-78
2021/04/02 10:21:35;;;;;;;32.28;21.73;;;;;;;;;;4914714;29;20240;-78
2021/04/02 10:24:04;;;;;;;30.27;20.38;;;;;;;;;;4908246;29;20243;-77
2021/04/02 10:26:32;;;;;;;30.42;20.95;;;;;;;;;;4921529;29;20753;-77
2021/04/02 10:28:59;;;;;;;31.75;22.98;;;;;;;;;;4926083;28;20248;-78
2021/04/02 10:31:27;;;;;;;30.30;22.65;;;;;;;;;;4922371;29;20235;-78
2021/04/02 10:33:55;;;;;;;25.80;21.10;;;;;;;;;;4924565;28;20251;-79
2021/04/02 10:36:23;;;;;;;31.50;22.50;;;;;;;;;;4923709;28;20251;-79
2021/04/02 10:38:51;;;;;;;30.15;22.27;;;;;;;;;;4920917;28;20602;-78
2021/04/02 10:41:19;;;;;;;29.55;23.00;;;;;;;;;;4934917;28;20225;-78
2021/04/02 10:43:46;;;;;;;30.05;22.20;;;;;;;;;;4930256;28;20231;-78
2021/04/02 10:46:14;;;;;;;29.98;22.23;;;;;;;;;;4903068;29;20236;-77
2021/04/02 10:48:41;;;;;;;28.73;23.33;;;;;;;;;;4919333;29;20602;-78
2021/04/02 10:51:10;;;;;;;33.88;23.92;;;;;;;;;;4924979;29;20266;-78
2021/04/02 10:53:38;;;;;;;32.33;24.63;;;;;;;;;;4915644;29;20232;-79
2021/04/02 10:56:06;;;;;;;28.27;23.67;;;;;;;;;;4920894;28;20235;-79
2021/04/02 10:58:35;;;;;;;28.05;22.75;;;;;;;;;;4924175;29;20707;-78
2021/04/02 11:01:03;;;;;;;29.42;24.08;;;;;;;;;;4922978;28;20231;-78
2021/04/02 11:03:31;;;;;;;30.80;24.75;;;;;;;;;;4936522;28;20299;-78
2021/04/02 11:05:58;;;;;;;27.02;24.02;;;;;;;;;;4915266;28;20231;-78
2021/04/02 11:08:26;;;;;;;29.42;24.20;;;;;;;;;;4909499;29;20232;-77
2021/04/02 11:10:55;;;;;;;33.10;26.33;;;;;;;;;;4910353;29;20230;-78
2021/04/02 11:13:23;;;;;;;32.92;24.77;;;;;;;;;;4920038;28;20246;-78
2021/04/02 11:15:50;;;;;;;33.47;23.35;;;;;;;;;;4929594;28;20227;-78
2021/04/02 11:18:18;;;;;;;28.75;24.38;;;;;;;;;;4908565;29;20239;-78
2021/04/02 11:20:45;;;;;;;32.08;25.13;;;;;;;;;;4911499;29;20232;-78
2021/04/02 11:23:17;;;;;;;35.50;25.33;;;;;;;;;;4893888;29;20239;-78
2021/04/02 11:25:45;;;;;;;34.33;27.35;;;;;;;;;;4907923;28;20248;-78
2021/04/02 11:28:14;;;;;;;31.35;25.40;;;;;;;;;;4915223;28;20247;-78
2021/04/02 11:30:42;;;;;;;32.08;24.55;;;;;;;;;;4913886;28;20236;-78
2021/04/02 11:33:09;;;;;;;26.48;23.52;;;;;;;;;;4924888;29;20247;-77
2021/04/02 11:35:37;;;;;;;32.65;24.85;;;;;;;;;;4933165;29;20595;-78
2021/04/02 11:38:04;;;;;;;30.70;23.70;;;;;;;;;;4904867;29;20239;-78
2021/04/02 11:40:32;;;;;;;28.30;23.92;;;;;;;;;;4913489;29;20233;-78
2021/04/02 11:43:00;;;;;;;36.80;29.10;;;;;;;;;;4917403;28;20224;-78
2021/04/02 11:45:28;;;;;;;28.25;23.90;;;;;;;;;;4916016;28;20243;-80
2021/04/02 11:47:56;;;;;;;32.65;25.67;;;;;;;;;;4916072;28;20239;-78
2021/04/02 11:50:24;;;;;;;28.10;23.95;;;;;;;;;;4916141;29;20247;-77
2021/04/02 11:52:51;;;;;;;30.92;25.98;;;;;;;;;;4898168;29;20239;-77
2021/04/02 11:55:20;;;;;;;35.83;25.80;;;;;;;;;;4917282;28;20220;-78
2021/04/02 11:57:47;;;;;;;29.83;24.92;;;;;;;;;;4912644;28;20244;-77
2021/04/02 12:00:17;;;;;;;28.45;24.17;;;;;;;;;;4895945;29;20255;-78
2021/04/02 12:02:46;;;;;;;28.90;23.67;;;;;;;;;;4913463;28;20228;-78
2021/04/02 12:05:15;;;;;;;28.45;22.02;;;;;;;;;;4918373;28;20258;-78
2021/04/02 12:07:42;;;;;;;25.73;21.80;;;;;;;;;;4921338;29;20245;-78
2021/04/02 12:10:11;;;;;;;33.67;20.92;;;;;;;;;;4908724;29;20621;-78
2021/04/02 12:12:39;;;;;;;30.17;22.45;;;;;;;;;;4922668;28;20227;-79
2021/04/02 12:15:07;;;;;;;29.65;20.58;;;;;;;;;;4927710;29;20243;-78
2021/04/02 12:17:36;;;;;;;28.23;22.20;;;;;;;;;;4922372;29;20236;-77
2021/04/02 12:20:10;;;;;;;28.17;23.63;;;;;;;;;;4942024;29;20242;-77
2021/04/02 12:22:38;;;;;;;28.50;21.67;;;;;;;;;;4920137;29;20336;-77
2021/04/02 12:25:07;;;;;;;24.23;21.70;;;;;;;;;;4922506;28;20232;-77
2021/04/02 12:27:35;;;;;;;57.50;49.13;;;;;;;;;;4927942;29;20255;-77
2021/04/02 12:30:08;;;;;;;33.65;28.15;;;;;;;;;;4905179;29;20250;-78
2021/04/02 12:32:36;;;;;;;25.98;23.08;;;;;;;;;;4920917;28;20557;-78
2021/04/02 12:35:04;;;;;;;28.58;24.40;;;;;;;;;;4911586;29;20236;-78
2021/04/02 12:37:33;;;;;;;25.55;22.70;;;;;;;;;;4912339;29;20239;-77
2021/04/02 12:40:06;;;;;;;26.38;21.65;;;;;;;;;;4893772;29;20232;-78
2021/04/02 12:42:33;;;;;;;23.80;21.25;;;;;;;;;;4903472;29;20236;-78
2021/04/02 12:45:01;;;;;;;25.35;21.10;;;;;;;;;;4902245;28;20228;-78
2021/04/02 12:47:28;;;;;;;26.75;22.67;;;;;;;;;;4906495;28;20745;-78
2021/04/02 12:49:56;;;;;;;29.50;23.98;;;;;;;;;;4885451;29;20236;-79
2021/04/02 12:52:23;;;;;;;28.23;24.67;;;;;;;;;;4901155;29;20243;-78
2021/04/02 12:54:52;;;;;;;24.98;21.25;;;;;;;;;;4905143;29;20229;-78
2021/04/02 12:57:19;;;;;;;25.25;22.55;;;;;;;;;;4896713;29;20232;-79
2021/04/02 12:59:47;;;;;;;28.83;22.52;;;;;;;;;;4910120;29;20221;-79
2021/04/02 13:02:14;;;;;;;25.92;23.13;;;;;;;;;;4910539;28;20240;-78
2021/04/02 13:04:42;;;;;;;25.88;20.85;;;;;;;;;;4898132;29;20243;-79
2021/04/02 13:07:09;;;;;;;29.67;21.95;;;;;;;;;;4928470;28;20234;-79
2021/04/02 13:09:37;;;;;;;27.17;22.25;;;;;;;;;;4931593;28;20235;-78
2021/04/02 13:12:07;;;;;;;26.08;19.08;;;;;;;;;;4927243;29;20238;-79
2021/04/02 13:14:35;;;;;;;27.20;18.50;;;;;;;;;;4909861;29;20224;-78
2021/04/02 13:17:06;;;;;;;23.13;17.75;;;;;;;;;;4917708;29;20220;-78
2021/04/02 13:19:34;;;;;;;23.95;18.33;;;;;;;;;;4933415;28;20231;-78
2021/04/02 13:22:02;;;;;;;26.63;18.48;;;;;;;;;;4940495;28;20231;-78
2021/04/02 13:24:31;;;;;;;22.52;18.45;;;;;;;;;;4932348;29;20222;-78
2021/04/02 13:26:58;;;;;;;23.60;17.90;;;;;;;;;;4936147;28;22270;-78
2021/04/02 13:29:27;;;;;;;23.88;17.33;;;;;;;;;;4925110;28;20224;-78
2021/04/02 13:31:54;;;;;;;28.15;17.90;;;;;;;;;;4932252;28;20227;-78
2021/04/02 13:34:22;;;;;;;23.10;19.17;;;;;;;;;;4892494;29;20608;-78
2021/04/02 13:36:50;;;;;;;26.02;20.40;;;;;;;;;;4902273;28;20618;-78
2021/04/02 13:39:17;;;;;;;23.40;18.55;;;;;;;;;;4924433;28;20225;-78
2021/04/02 13:41:45;;;;;;;25.45;18.60;;;;;;;;;;4908822;28;20261;-78
2021/04/02 13:44:18;;;;;;;27.88;19.35;;;;;;;;;;4908775;29;20228;-78
2021/04/02 13:46:46;;;;;;;22.65;16.20;;;;;;;;;;4909268;29;20238;-78
2021/04/02 13:49:14;;;;;;;26.98;17.50;;;;;;;;;;4915092;29;20236;-79
2021/04/02 13:51:41;;;;;;;21.73;18.65;;;;;;;;;;4913578;28;20236;-78
2021/04/02 13:54:09;;;;;;;24.85;17.13;;;;;;;;;;4913322;28;20228;-79
2021/04/02 13:56:37;;;;;;;22.70;16.20;;;;;;;;;;4911008;29;20240;-78
2021/04/02 13:59:04;;;;;;;22.00;17.15;;;;;;;;;;4907840;29;20374;-78
2021/04/02 14:01:32;;;;;;;20.38;15.55;;;;;;;;;;4911100;28;20238;-78
2021/04/02 14:04:01;;;;;;;20.00;13.43;;;;;;;;;;4913814;28;20239;-78
2021/04/02 14:06:28;;;;;;;20.67;13.18;;;;;;;;;;4910562;29;20244;-78
2021/04/02 14:08:55;;;;;;;18.17;11.98;;;;;;;;;;4914558;28;20224;-78
2021/04/02 14:11:23;;;;;;;19.10;11.70;;;;;;;;;;4916626;28;20263;-78
2021/04/02 14:13:51;;;;;;;16.73;12.10;;;;;;;;;;4916000;28;20449;-77
2021/04/02 14:16:19;;;;;;;17.73;11.73;;;;;;;;;;4899677;29;20236;-78
2021/04/02 14:18:47;;;;;;;18.35;11.02;;;;;;;;;;4916304;28;20243;-78
2021/04/02 14:21:15;;;;;;;15.13;10.43;;;;;;;;;;4916782;28;20232;-78
2021/04/02 14:23:43;;;;;;;22.25;11.65;;;;;;;;;;4926329;28;20240;-79
2021/04/02 14:26:10;;;;;;;16.00;10.93;;;;;;;;;;4911774;29;20235;-78
2021/04/02 14:28:38;;;;;;;13.05;10.30;;;;;;;;;;4916799;28;20721;-78
2021/04/02 14:31:05;;;;;;;14.30;10.65;;;;;;;;;;4912779;29;20247;-78
2021/04/02 14:33:33;;;;;;;15.63;10.73;;;;;;;;;;4917847;28;20235;-78
2021/04/02 14:36:00;;;;;;;16.20;10.98;;;;;;;;;;4912819;28;20221;-78